Time;durP1;ratioP1;P1;durP2;ratioP2;P2;SDS_P1;SDS_P2;PMS_P1;PMS_P2;Temp;Humidity;BMP_temperature;BMP_pressure;BME280_temperature;BME280_humidity;BME280_pressure;Samples;Min_cycle;Max_cycle;Signal;HPM_P1;HPM_P2
2021/05/14 00:00:59;;;;;;;1.70;1.60;;;10.10;67.70;;;;;;5037070;28;20682;-75
2021/05/14 00:03:26;;;;;;;1.67;1.58;;;10.10;68.40;;;;;;5035492;28;20210;-75
2021/05/14 00:05:52;;;;;;;2.20;1.92;;;10.10;68.10;;;;;;5035046;28;20569;-76
2021/05/14 00:08:19;;;;;;;1.50;1.40;;;9.90;69.20;;;;;;5034698;28;20318;-75
2021/05/14 00:10:46;;;;;;;1.55;1.45;;;9.80;70.70;;;;;;5035482;28;20231;-76
2021/05/14 00:13:12;;;;;;;1.65;1.42;;;9.70;71.40;;;;;;5035977;28;20216;-76
2021/05/14 00:15:39;;;;;;;1.95;1.48;;;9.60;72.60;;;;;;5036205;28;20617;-75
2021/05/14 00:18:06;;;;;;;1.67;1.42;;;9.60;72.60;;;;;;5035788;28;20207;-76
2021/05/14 00:20:33;;;;;;;0.95;0.95;;;9.60;73.50;;;;;;5036123;28;20239;-76
2021/05/14 00:22:59;;;;;;;2.08;1.50;;;9.50;73.60;;;;;;5036271;28;20246;-76
2021/05/14 00:25:26;;;;;;;1.75;1.38;;;9.50;74.70;;;;;;5036328;28;20230;-76
2021/05/14 00:27:53;;;;;;;1.92;1.50;;;9.50;75.00;;;;;;5034883;28;20227;-75
2021/05/14 00:30:21;;;;;;;1.30;1.20;;;9.40;75.50;;;;;;5035518;28;20235;-77
2021/05/14 00:32:47;;;;;;;1.20;1.10;;;9.30;76.60;;;;;;5035235;28;20286;-76
2021/05/14 00:35:14;;;;;;;1.58;1.48;;;9.30;76.60;;;;;;5038599;28;20325;-76
2021/05/14 00:37:40;;;;;;;1.30;1.20;;;9.30;76.60;;;;;;5051177;28;20233;-76
2021/05/14 00:40:08;;;;;;;1.42;1.30;;;9.30;77.00;;;;;;5046347;28;20223;-77
2021/05/14 00:42:34;;;;;;;1.40;1.30;;;9.30;77.50;;;;;;5035561;28;20242;-75
2021/05/14 00:45:02;;;;;;;1.50;1.40;;;9.40;76.70;;;;;;5035010;28;20790;-76
2021/05/14 00:47:28;;;;;;;2.95;1.30;;;9.40;76.70;;;;;;5034583;28;20269;-77
2021/05/14 00:49:55;;;;;;;1.33;1.20;;;9.60;76.90;;;;;;5034874;28;20207;-77
2021/05/14 00:52:23;;;;;;;1.30;1.20;;;9.60;75.80;;;;;;5035262;28;20345;-77
2021/05/14 00:54:52;;;;;;;1.75;1.60;;;9.70;75.30;;;;;;5036205;28;20263;-76
2021/05/14 00:57:18;;;;;;;2.08;1.40;;;9.80;74.50;;;;;;5038593;28;20213;-76
2021/05/14 00:59:46;;;;;;;1.60;1.50;;;9.80;73.80;;;;;;5039843;28;20774;-76
2021/05/14 01:02:14;;;;;;;1.58;1.48;;;9.90;72.60;;;;;;5040778;28;20223;-75
2021/05/14 01:04:42;;;;;;;1.50;1.30;;;9.90;71.80;;;;;;5039762;28;20290;-76
2021/05/14 01:07:09;;;;;;;1.70;1.50;;;9.90;71.70;;;;;;5050675;28;20230;-76
2021/05/14 01:09:38;;;;;;;2.70;1.40;;;10.00;70.90;;;;;;5055109;28;20217;-75
2021/05/14 01:12:06;;;;;;;2.25;1.30;;;10.00;70.00;;;;;;5043597;28;20194;-76
2021/05/14 01:14:33;;;;;;;2.45;1.30;;;10.00;69.80;;;;;;5050444;28;20687;-76
2021/05/14 01:16:59;;;;;;;1.63;1.52;;;10.10;69.40;;;;;;5035530;28;20243;-77
2021/05/14 01:19:26;;;;;;;1.23;1.08;;;10.00;69.20;;;;;;5034217;28;20214;-76
2021/05/14 01:21:54;;;;;;;2.17;1.10;;;10.10;69.70;;;;;;5034305;28;20386;-77
2021/05/14 01:24:20;;;;;;;1.50;1.40;;;10.10;69.20;;;;;;5034403;28;20325;-76
2021/05/14 01:26:47;;;;;;;1.52;1.40;;;10.10;69.00;;;;;;5033613;28;20219;-77
2021/05/14 01:29:13;;;;;;;3.67;1.42;;;10.10;69.40;;;;;;5035117;28;20239;-77
2021/05/14 01:31:40;;;;;;;1.30;1.20;;;10.10;69.00;;;;;;5034208;28;20210;-76
2021/05/14 01:34:08;;;;;;;1.40;1.30;;;10.10;68.90;;;;;;5033963;28;20316;-76
2021/05/14 01:36:35;;;;;;;1.90;1.65;;;10.00;69.20;;;;;;5033649;28;20213;-77
2021/05/14 01:39:11;;;;;;;2.00;1.77;;;10.00;69.80;;;;;;5034159;28;20333;-78
2021/05/14 01:41:37;;;;;;;3.00;1.52;;;9.90;71.10;;;;;;5034377;28;20357;-76
2021/05/14 01:44:04;;;;;;;2.25;1.70;;;9.90;71.80;;;;;;5035239;28;20286;-77
2021/05/14 01:46:31;;;;;;;1.58;1.48;;;9.80;73.20;;;;;;5036996;28;20234;-76
2021/05/14 01:48:57;;;;;;;2.15;2.05;;;9.80;73.20;;;;;;5038562;28;20242;-76
2021/05/14 01:51:24;;;;;;;1.80;1.65;;;9.70;73.30;;;;;;5039817;28;20290;-76
2021/05/14 01:53:51;;;;;;;1.80;1.50;;;9.70;73.80;;;;;;5038991;28;20332;-76
2021/05/14 01:56:19;;;;;;;2.05;1.90;;;9.60;74.10;;;;;;5039862;28;20570;-76
2021/05/14 01:58:46;;;;;;;2.00;1.80;;;9.60;75.00;;;;;;5037377;28;20294;-76
2021/05/14 02:01:12;;;;;;;3.03;1.80;;;9.50;75.80;;;;;;5035838;28;20235;-76
2021/05/14 02:03:39;;;;;;;1.80;1.70;;;9.50;76.80;;;;;;5033989;28;20306;-76
2021/05/14 02:06:05;;;;;;;2.40;2.20;;;9.50;76.80;;;;;;5033795;28;20238;-76
2021/05/14 02:08:32;;;;;;;1.73;1.63;;;9.50;76.80;;;;;;5032996;28;20282;-76
2021/05/14 02:10:58;;;;;;;2.28;1.70;;;9.50;76.80;;;;;;5033978;28;20261;-76
2021/05/14 02:13:26;;;;;;;1.67;1.58;;;9.40;76.70;;;;;;5033149;28;20279;-77
2021/05/14 02:15:52;;;;;;;1.80;1.45;;;9.30;76.60;;;;;;5032826;28;20294;-77
2021/05/14 02:18:19;;;;;;;6.05;1.90;;;9.30;78.00;;;;;;5033054;28;20348;-77
2021/05/14 02:20:45;;;;;;;1.92;1.80;;;9.30;78.70;;;;;;5034427;28;20299;-75
2021/05/14 02:23:11;;;;;;;3.05;2.00;;;9.30;79.40;;;;;;5044613;28;20257;-76
2021/05/14 02:25:38;;;;;;;1.80;1.70;;;9.30;79.50;;;;;;5025760;28;20227;-76
2021/05/14 02:28:06;;;;;;;1.63;1.52;;;9.30;79.30;;;;;;5033239;28;20230;-76
2021/05/14 02:30:34;;;;;;;1.77;1.65;;;9.30;79.40;;;;;;5033608;28;20218;-76
2021/05/14 02:33:00;;;;;;;3.60;1.73;;;9.30;79.60;;;;;;5033745;28;20270;-75
2021/05/14 02:35:27;;;;;;;2.20;1.83;;;9.20;79.80;;;;;;5033757;28;20235;-76
2021/05/14 02:37:53;;;;;;;2.05;1.70;;;9.20;80.80;;;;;;5034858;28;20203;-76
2021/05/14 02:40:20;;;;;;;1.70;1.60;;;9.10;80.50;;;;;;5033807;28;20207;-76
2021/05/14 02:42:46;;;;;;;2.38;1.73;;;9.10;81.10;;;;;;5031846;28;20262;-77
2021/05/14 02:45:14;;;;;;;2.10;1.50;;;9.00;81.80;;;;;;5031940;28;20666;-77
2021/05/14 02:47:42;;;;;;;2.05;1.63;;;9.00;82.80;;;;;;5031402;28;20602;-77
2021/05/14 02:50:10;;;;;;;1.70;1.60;;;9.00;83.00;;;;;;5031650;28;20196;-77
2021/05/14 02:52:36;;;;;;;1.85;1.70;;;9.00;84.10;;;;;;5031579;28;20199;-77
2021/05/14 02:55:04;;;;;;;6.40;1.83;;;8.90;84.50;;;;;;5031501;28;20227;-76
2021/05/14 02:57:31;;;;;;;2.35;2.15;;;8.90;84.80;;;;;;5031417;28;20203;-77
2021/05/14 02:59:57;;;;;;;2.22;2.00;;;8.90;84.70;;;;;;5031521;28;20210;-77
2021/05/14 03:02:23;;;;;;;2.47;1.70;;;8.80;84.70;;;;;;5031974;28;20208;-77
2021/05/14 03:04:51;;;;;;;2.05;1.95;;;8.80;84.70;;;;;;5031506;28;20314;-76
2021/05/14 03:07:19;;;;;;;1.70;1.60;;;8.80;84.80;;;;;;5038119;28;20250;-76
2021/05/14 03:09:45;;;;;;;2.00;1.90;;;8.70;86.20;;;;;;5047719;28;20250;-75
2021/05/14 03:12:12;;;;;;;2.45;2.08;;;8.70;87.20;;;;;;5050466;28;20270;-76
2021/05/14 03:14:38;;;;;;;2.55;1.88;;;8.70;87.40;;;;;;5050476;28;20313;-74
2021/05/14 03:17:04;;;;;;;3.25;1.70;;;8.60;87.20;;;;;;5050484;28;20207;-75
2021/05/14 03:19:31;;;;;;;4.32;1.80;;;8.60;87.70;;;;;;5049719;28;20195;-75
2021/05/14 03:21:58;;;;;;;2.85;1.98;;;8.50;87.80;;;;;;5049290;28;20238;-76
2021/05/14 03:24:24;;;;;;;1.85;1.73;;;8.50;88.70;;;;;;5048355;28;20309;-75
2021/05/14 03:26:53;;;;;;;3.08;1.83;;;8.50;89.40;;;;;;5049039;28;20211;-77
2021/05/14 03:29:19;;;;;;;1.60;1.50;;;8.40;88.80;;;;;;5049863;28;20221;-76
2021/05/14 03:31:46;;;;;;;2.15;1.95;;;8.30;89.80;;;;;;5043191;28;20207;-75
2021/05/14 03:34:12;;;;;;;1.95;1.80;;;8.30;90.20;;;;;;5041828;28;20230;-75
2021/05/14 03:36:39;;;;;;;2.40;2.10;;;8.20;90.40;;;;;;5042001;28;20238;-75
2021/05/14 03:39:08;;;;;;;1.90;1.80;;;8.10;91.00;;;;;;5040159;28;20645;-75
2021/05/14 03:41:47;;;;;;;2.63;1.90;;;8.10;91.00;;;;;;5039383;28;20214;-75
2021/05/14 03:44:13;;;;;;;4.93;1.70;;;8.00;91.40;;;;;;5041827;28;20229;-76
2021/05/14 03:46:40;;;;;;;2.00;1.80;;;8.10;91.80;;;;;;5043819;28;20747;-76
2021/05/14 03:49:06;;;;;;;1.60;1.50;;;8.10;91.80;;;;;;5042538;28;20253;-76
2021/05/14 03:51:35;;;;;;;13.02;2.97;;;8.10;92.00;;;;;;5040429;28;20235;-75
2021/05/14 03:54:02;;;;;;;3.10;1.85;;;8.10;92.00;;;;;;5041232;28;20231;-75
2021/05/14 03:56:30;;;;;;;2.47;2.00;;;8.10;92.10;;;;;;5036373;28;20213;-77
2021/05/14 03:58:57;;;;;;;2.08;1.98;;;8.10;92.70;;;;;;5033415;28;20417;-75
2021/05/14 04:01:24;;;;;;;3.35;2.00;;;8.20;92.50;;;;;;5033092;28;20234;-76
2021/05/14 04:03:50;;;;;;;3.55;1.83;;;8.20;92.30;;;;;;5034398;28;20223;-76
2021/05/14 04:06:17;;;;;;;2.72;2.10;;;8.20;92.10;;;;;;5034378;28;20207;-77
2021/05/14 04:08:43;;;;;;;2.03;1.83;;;8.20;92.00;;;;;;5034100;28;20714;-76
2021/05/14 04:16:38;;;;;;;2.45;1.80;;;8.30;91.70;;;;;;5020097;28;20319;-75
2021/05/14 04:19:05;;;;;;;2.25;1.88;;;8.40;91.60;;;;;;5016134;28;20239;-77
2021/05/14 04:21:31;;;;;;;2.60;1.83;;;8.40;91.10;;;;;;5034912;28;20348;-77
2021/05/14 04:23:57;;;;;;;1.90;1.80;;;8.50;91.10;;;;;;5039403;28;20227;-77
2021/05/14 04:26:24;;;;;;;1.80;1.70;;;8.50;91.10;;;;;;5038252;28;20207;-76
2021/05/14 04:28:50;;;;;;;1.73;1.63;;;8.70;90.90;;;;;;5040658;28;20227;-75
2021/05/14 04:31:17;;;;;;;2.22;2.13;;;8.90;90.10;;;;;;5045210;28;20215;-76
2021/05/14 04:33:44;;;;;;;2.95;1.73;;;9.00;87.50;;;;;;5053875;28;20235;-76
2021/05/14 04:36:10;;;;;;;1.95;1.75;;;9.20;85.00;;;;;;5054703;28;20199;-78
2021/05/14 04:38:37;;;;;;;3.65;1.70;;;9.50;85.10;;;;;;5043425;28;20207;-75
2021/05/14 04:41:03;;;;;;;2.17;1.73;;;10.00;80.20;;;;;;5038510;28;20207;-76
2021/05/14 04:43:29;;;;;;;1.67;1.58;;;10.60;74.10;;;;;;5038342;28;20253;-75
2021/05/14 04:45:56;;;;;;;1.60;1.50;;;11.20;69.50;;;;;;5044545;28;20218;-75
2021/05/14 04:48:23;;;;;;;4.50;1.55;;;12.10;62.20;;;;;;5036785;28;20326;-75
2021/05/14 04:50:50;;;;;;;1.45;1.35;;;12.80;56.60;;;;;;5037154;28;20211;-74
2021/05/14 04:53:17;;;;;;;1.48;1.38;;;13.50;53.20;;;;;;5037536;28;20781;-75
2021/05/14 04:55:44;;;;;;;1.33;1.20;;;14.30;49.60;;;;;;5038460;28;20207;-76
2021/05/14 04:58:10;;;;;;;2.33;1.83;;;14.80;46.40;;;;;;5039931;28;20669;-74
2021/05/14 05:00:36;;;;;;;1.52;1.40;;;15.10;44.30;;;;;;5042001;28;20706;-75
2021/05/14 05:03:03;;;;;;;1.15;1.05;;;15.60;44.30;;;;;;5035718;28;20625;-75
2021/05/14 05:05:31;;;;;;;1.27;1.17;;;16.10;41.40;;;;;;5038334;28;20242;-76
2021/05/14 05:07:57;;;;;;;2.13;1.23;;;16.30;41.10;;;;;;5037755;28;20681;-74
2021/05/14 05:10:24;;;;;;;2.50;1.43;;;16.40;40.30;;;;;;5036294;28;20536;-75
2021/05/14 05:12:59;;;;;;;1.73;1.20;;;16.60;39.30;;;;;;5035744;28;20537;-75
2021/05/14 05:15:26;;;;;;;1.77;1.30;;;16.90;39.00;;;;;;5037489;28;20964;-74
2021/05/14 05:17:52;;;;;;;1.27;1.10;;;16.90;38.20;;;;;;5038409;28;20454;-74
2021/05/14 05:20:18;;;;;;;1.83;1.57;;;16.90;38.50;;;;;;5036144;28;20476;-74
2021/05/14 05:22:46;;;;;;;4.00;1.27;;;16.50;39.10;;;;;;5036387;28;20913;-74
2021/05/14 05:25:13;;;;;;;1.23;1.23;;;16.50;39.00;;;;;;5033249;28;20584;-75
2021/05/14 05:27:40;;;;;;;4.10;1.53;;;16.50;39.00;;;;;;5033326;28;20528;-77
2021/05/14 05:30:08;;;;;;;3.00;1.40;;;16.50;39.30;;;;;;5034689;28;20458;-74
2021/05/14 05:32:35;;;;;;;2.50;1.30;;;16.50;38.60;;;;;;5034673;28;20874;-74
2021/05/14 05:35:01;;;;;;;1.33;1.23;;;16.60;39.00;;;;;;5035196;28;20593;-74
2021/05/14 05:37:27;;;;;;;1.93;1.03;;;16.90;37.80;;;;;;5038389;28;20470;-75
2021/05/14 05:39:54;;;;;;;1.53;1.20;;;17.00;37.50;;;;;;5040286;28;20541;-76
2021/05/14 05:42:21;;;;;;;1.27;1.17;;;17.00;37.90;;;;;;5040834;28;20486;-73
2021/05/14 05:44:47;;;;;;;1.30;1.20;;;17.10;37.70;;;;;;5049178;28;20467;-76
2021/05/14 05:47:13;;;;;;;1.53;1.20;;;17.50;36.50;;;;;;5055465;28;20526;-75
2021/05/14 05:49:40;;;;;;;1.20;1.10;;;17.70;36.70;;;;;;5045728;28;20510;-75
2021/05/14 05:52:07;;;;;;;1.60;1.50;;;17.90;36.80;;;;;;5033361;28;20841;-76
2021/05/14 05:54:33;;;;;;;1.40;1.30;;;17.40;36.40;;;;;;5033615;28;20513;-74
2021/05/14 05:57:00;;;;;;;3.70;1.00;;;16.70;37.80;;;;;;5033022;28;20489;-76
2021/05/14 05:59:27;;;;;;;1.40;1.30;;;16.70;38.10;;;;;;5032616;28;20511;-76
2021/05/14 06:01:53;;;;;;;2.60;1.23;;;17.10;37.30;;;;;;5032980;28;20471;-75
2021/05/14 06:04:20;;;;;;;0.90;0.87;;;17.20;36.60;;;;;;5032209;28;20488;-75
2021/05/14 06:06:46;;;;;;;1.53;1.30;;;17.30;36.30;;;;;;5031765;28;20549;-74
2021/05/14 06:09:13;;;;;;;4.17;1.03;;;17.60;36.60;;;;;;5032931;28;21073;-73
2021/05/14 06:11:39;;;;;;;1.50;0.87;;;17.90;36.50;;;;;;5034015;28;20446;-77
2021/05/14 06:14:06;;;;;;;1.00;0.90;;;17.80;36.80;;;;;;5032414;28;20509;-75
2021/05/14 06:16:33;;;;;;;3.10;0.90;;;17.90;36.80;;;;;;5032722;28;20608;-75
2021/05/14 06:19:04;;;;;;;1.33;1.23;;;17.80;36.40;;;;;;5032697;28;20443;-76
2021/05/14 06:21:31;;;;;;;1.57;1.10;;;17.70;36.70;;;;;;5032875;28;20450;-74
2021/05/14 06:23:57;;;;;;;2.13;1.60;;;17.50;36.50;;;;;;5033760;28;20474;-78
2021/05/14 06:26:24;;;;;;;1.60;1.37;;;17.40;36.40;;;;;;5030955;28;20420;-74
2021/05/14 06:28:50;;;;;;;1.90;1.03;;;17.50;36.50;;;;;;5031738;28;20572;-76
2021/05/14 06:31:18;;;;;;;1.00;0.90;;;17.30;36.30;;;;;;5032659;28;20483;-75
2021/05/14 06:33:44;;;;;;;1.20;0.90;;;17.30;36.30;;;;;;5031460;28;20834;-75
2021/05/14 06:36:11;;;;;;;1.80;1.20;;;17.40;36.40;;;;;;5031829;28;20526;-75
2021/05/14 06:38:38;;;;;;;1.30;1.20;;;17.20;36.20;;;;;;5031383;28;20454;-78
2021/05/14 06:41:05;;;;;;;0.93;0.90;;;16.90;37.10;;;;;;5031687;28;20454;-75
2021/05/14 06:43:32;;;;;;;1.83;1.47;;;16.80;37.70;;;;;;5031540;28;20806;-75
2021/05/14 06:46:01;;;;;;;1.47;1.37;;;16.60;38.40;;;;;;5031910;28;20450;-77
2021/05/14 06:48:29;;;;;;;1.90;1.80;;;16.20;39.10;;;;;;5031375;28;20490;-76
2021/05/14 06:50:55;;;;;;;3.70;1.20;;;15.80;40.50;;;;;;5031343;28;20458;-76
2021/05/14 06:53:22;;;;;;;3.00;2.10;;;15.30;41.20;;;;;;5031689;28;20599;-77
2021/05/14 06:55:48;;;;;;;3.70;1.60;;;14.70;43.90;;;;;;5031585;28;20664;-74
2021/05/14 06:58:15;;;;;;;1.30;1.20;;;14.40;44.30;;;;;;5031160;28;20290;-75
2021/05/14 07:00:41;;;;;;;1.48;1.33;;;14.00;45.30;;;;;;5031372;28;20260;-75
2021/05/14 07:03:07;;;;;;;1.30;1.20;;;13.90;47.30;;;;;;5031684;28;20203;-76
2021/05/14 07:05:35;;;;;;;1.10;1.00;;;13.70;47.60;;;;;;5031653;28;20722;-78
2021/05/14 07:08:02;;;;;;;2.20;1.40;;;13.80;47.60;;;;;;5033455;28;20227;-75
2021/05/14 07:10:28;;;;;;;1.40;1.30;;;13.90;48.00;;;;;;5034998;28;20308;-75
2021/05/14 07:12:55;;;;;;;3.45;1.20;;;14.00;47.80;;;;;;5031018;28;20222;-75
2021/05/14 07:15:22;;;;;;;1.42;1.30;;;14.00;48.10;;;;;;5030901;28;20223;-75
2021/05/14 07:17:49;;;;;;;4.63;1.10;;;14.00;47.20;;;;;;5031283;28;20211;-76
2021/05/14 07:20:15;;;;;;;1.65;1.27;;;14.00;47.00;;;;;;5030831;28;20286;-75
2021/05/14 07:22:42;;;;;;;1.17;1.13;;;14.00;47.80;;;;;;5031401;28;20229;-75
2021/05/14 07:25:09;;;;;;;1.10;1.10;;;14.00;47.90;;;;;;5031275;28;20223;-76
2021/05/14 07:27:36;;;;;;;0.80;0.80;;;14.00;47.90;;;;;;5032871;28;20255;-76
2021/05/14 07:30:03;;;;;;;1.23;1.13;;;14.10;46.70;;;;;;5033903;28;20242;-77
2021/05/14 07:32:30;;;;;;;1.00;0.90;;;14.20;47.20;;;;;;5033677;28;20211;-77
2021/05/14 07:34:57;;;;;;;1.02;0.93;;;14.20;46.40;;;;;;5032884;28;20242;-77
2021/05/14 07:37:23;;;;;;;1.10;1.00;;;14.10;47.30;;;;;;5033225;28;20291;-76
2021/05/14 07:39:50;;;;;;;0.90;0.88;;;14.10;46.30;;;;;;5033727;28;20683;-76
2021/05/14 07:42:17;;;;;;;1.98;0.70;;;14.10;46.30;;;;;;5033518;28;20578;-76
2021/05/14 07:44:44;;;;;;;5.47;1.17;;;14.20;46.40;;;;;;5031759;28;20500;-76
2021/05/14 07:47:11;;;;;;;1.08;1.08;;;14.30;46.70;;;;;;5032508;28;20238;-76
2021/05/14 07:49:37;;;;;;;0.82;0.60;;;14.40;45.30;;;;;;5035147;28;20571;-76
2021/05/14 07:52:04;;;;;;;0.95;0.90;;;14.50;43.70;;;;;;5015697;28;20208;-77
2021/05/14 07:54:31;;;;;;;0.70;0.70;;;14.60;43.80;;;;;;5024791;28;20287;-75
2021/05/14 07:56:58;;;;;;;0.77;0.77;;;14.70;43.90;;;;;;5051127;28;20317;-76
2021/05/14 07:59:26;;;;;;;0.70;0.70;;;14.80;44.00;;;;;;5037328;28;20203;-76
2021/05/14 08:01:52;;;;;;;1.15;0.88;;;14.70;43.90;;;;;;5037984;28;20207;-78
2021/05/14 08:04:18;;;;;;;0.77;0.50;;;14.70;43.90;;;;;;5042169;28;20310;-77
2021/05/14 08:06:45;;;;;;;0.80;0.60;;;14.80;44.00;;;;;;5045541;28;20655;-77
2021/05/14 08:09:18;;;;;;;0.60;0.60;;;14.90;43.80;;;;;;5050968;28;20266;-76
2021/05/14 08:11:44;;;;;;;0.90;0.60;;;15.00;43.20;;;;;;5039851;28;20211;-76
2021/05/14 08:14:12;;;;;;;0.60;0.60;;;15.10;43.10;;;;;;5047293;28;20223;-76
2021/05/14 08:16:38;;;;;;;0.65;0.52;;;15.20;42.40;;;;;;5046832;28;20243;-75
2021/05/14 08:19:04;;;;;;;1.00;0.73;;;15.30;42.00;;;;;;5051404;28;20215;-75
2021/05/14 08:21:31;;;;;;;1.10;0.50;;;15.50;41.40;;;;;;5037168;28;20231;-76
2021/05/14 08:23:57;;;;;;;1.80;0.60;;;15.60;39.70;;;;;;5035562;28;20637;-76
2021/05/14 08:26:24;;;;;;;0.53;0.40;;;15.70;39.00;;;;;;5034975;28;20456;-75
2021/05/14 08:28:50;;;;;;;0.60;0.60;;;15.60;39.70;;;;;;5036844;28;20803;-76
2021/05/14 08:31:18;;;;;;;1.70;0.50;;;15.70;39.90;;;;;;5036453;28;20207;-78
2021/05/14 08:33:44;;;;;;;0.63;0.40;;;15.90;39.20;;;;;;5036456;28;20887;-76
2021/05/14 08:36:11;;;;;;;1.00;0.90;;;15.90;36.90;;;;;;5034034;28;20431;-75
2021/05/14 08:38:37;;;;;;;2.47;0.70;;;15.80;37.40;;;;;;5035178;28;20432;-75
2021/05/14 08:41:04;;;;;;;0.40;0.40;;;15.90;38.00;;;;;;5033827;28;20446;-75
2021/05/14 08:43:31;;;;;;;0.60;0.60;;;16.20;38.60;;;;;;5033476;28;20210;-76
2021/05/14 08:45:59;;;;;;;0.60;0.60;;;16.50;37.10;;;;;;5033714;28;20425;-77
2021/05/14 08:48:27;;;;;;;0.60;0.60;;;16.50;37.30;;;;;;5033014;28;20489;-77
2021/05/14 08:50:53;;;;;;;1.23;0.50;;;16.60;36.60;;;;;;5032998;28;20309;-76
2021/05/14 08:53:20;;;;;;;0.60;0.47;;;16.50;35.60;;;;;;5033290;28;20550;-75
2021/05/14 08:55:46;;;;;;;1.20;0.50;;;16.30;35.40;;;;;;5033446;28;20651;-76
2021/05/14 08:58:12;;;;;;;1.87;0.43;;;16.40;35.40;;;;;;5052972;28;20466;-77
2021/05/14 09:00:39;;;;;;;0.57;0.57;;;16.60;34.70;;;;;;5041296;28;20451;-77
2021/05/14 09:03:15;;;;;;;1.17;0.50;;;16.80;33.70;;;;;;5037229;28;20449;-76
2021/05/14 09:05:46;;;;;;;1.08;0.70;;;16.80;34.30;;;;;;5038209;28;20451;-77
2021/05/14 09:08:13;;;;;;;0.60;0.60;;;16.50;35.50;;;;;;5035237;28;20255;-76
2021/05/14 09:10:39;;;;;;;0.97;0.50;;;16.30;35.30;;;;;;5033464;28;20294;-76
2021/05/14 09:13:11;;;;;;;1.00;0.50;;;16.20;35.20;;;;;;5034008;28;20493;-75
2021/05/14 09:15:40;;;;;;;0.47;0.40;;;16.50;34.50;;;;;;5040765;28;20469;-75
2021/05/14 09:18:12;;;;;;;1.10;0.60;;;16.70;33.30;;;;;;5042967;28;20420;-76
2021/05/14 09:20:40;;;;;;;0.57;0.50;;;16.90;33.00;;;;;;5034866;28;20492;-77
2021/05/14 09:23:27;;;;;;;0.63;0.60;;;17.20;32.40;;;;;;5033080;28;20436;-75
2021/05/14 09:25:55;;;;;;;0.90;0.60;;;17.40;31.80;;;;;;5033451;28;20608;-75
2021/05/14 09:28:23;;;;;;;0.83;0.60;;;17.10;33.30;;;;;;5033319;28;20528;-76
2021/05/14 09:31:08;;;;;;;0.97;0.70;;;17.20;33.80;;;;;;5034015;28;20516;-74
2021/05/14 09:33:36;;;;;;;1.60;0.43;;;17.40;32.50;;;;;;5033717;28;20500;-77
2021/05/14 09:36:07;;;;;;;0.50;0.50;;;17.20;31.90;;;;;;5034275;28;20472;-77
2021/05/14 09:38:42;;;;;;;0.90;0.77;;;17.00;31.10;;;;;;5034378;28;20424;-75
2021/05/14 09:41:22;;;;;;;1.93;0.67;;;17.00;32.60;;;;;;5036173;28;20455;-76
2021/05/14 09:43:55;;;;;;;1.17;0.67;;;17.10;31.70;;;;;;5048709;28;20454;-77
2021/05/14 09:46:26;;;;;;;0.43;0.43;;;17.00;32.30;;;;;;5046471;28;20519;-75
2021/05/14 09:48:56;;;;;;;1.00;0.60;;;17.20;33.00;;;;;;5037808;28;20979;-75
2021/05/14 09:51:23;;;;;;;0.97;0.83;;;17.40;32.00;;;;;;5039162;28;20531;-77
2021/05/14 09:53:50;;;;;;;0.60;0.50;;;17.60;32.10;;;;;;5037131;28;20512;-76
2021/05/14 09:56:26;;;;;;;1.03;0.50;;;17.90;30.10;;;;;;5035450;28;20920;-75
2021/05/14 09:58:55;;;;;;;1.10;0.63;;;17.90;30.40;;;;;;5040963;28;20454;-76
2021/05/14 10:01:22;;;;;;;0.60;0.53;;;18.10;30.30;;;;;;5045770;28;20456;-75
2021/05/14 10:03:49;;;;;;;1.20;0.83;;;18.50;28.90;;;;;;5037146;28;20488;-76
2021/05/14 10:06:16;;;;;;;0.40;0.40;;;18.80;29.20;;;;;;5034083;28;20483;-75
2021/05/14 10:08:48;;;;;;;0.80;0.50;;;19.20;28.30;;;;;;5034764;28;20576;-75
2021/05/14 10:11:16;;;;;;;1.13;0.63;;;19.40;28.50;;;;;;5034082;28;20441;-74
2021/05/14 10:13:43;;;;;;;1.10;0.60;;;19.40;29.00;;;;;;5033511;28;20444;-76
2021/05/14 10:16:09;;;;;;;1.93;0.70;;;19.50;27.40;;;;;;5033736;28;20589;-76
2021/05/14 10:18:38;;;;;;;0.60;0.50;;;19.70;26.90;;;;;;5034899;28;20485;-75
2021/05/14 10:21:12;;;;;;;0.53;0.50;;;20.00;25.50;;;;;;5037334;28;20517;-75
2021/05/14 10:23:39;;;;;;;1.20;0.50;;;20.20;26.40;;;;;;5030603;28;20459;-75
2021/05/14 10:26:07;;;;;;;0.90;0.77;;;20.40;26.90;;;;;;5038212;28;20540;-75
2021/05/14 10:28:40;;;;;;;1.03;0.40;;;20.20;25.60;;;;;;5038786;28;20519;-76
2021/05/14 10:31:24;;;;;;;0.77;0.43;;;20.00;24.80;;;;;;5035669;28;20486;-73
2021/05/14 10:33:56;;;;;;;3.10;0.60;;;19.80;25.90;;;;;;5035853;28;20993;-75
2021/05/14 10:36:43;;;;;;;0.60;0.60;;;19.80;25.50;;;;;;5067163;22;20517;-82
2021/05/14 10:39:11;;;;;;;3.00;0.63;;;19.80;25.70;;;;;;5042728;28;20428;-81
2021/05/14 10:41:49;;;;;;;2.17;0.60;;;20.30;26.10;;;;;;5042832;28;20428;-80
2021/05/14 10:44:17;;;;;;;0.70;0.60;;;20.70;25.30;;;;;;5050854;28;20433;-80
2021/05/14 10:46:44;;;;;;;3.13;0.70;;;20.40;24.90;;;;;;5031732;28;20478;-82
2021/05/14 10:49:12;;;;;;;0.80;0.60;;;20.30;25.80;;;;;;5031280;28;20453;-80
2021/05/14 10:52:00;;;;;;;2.00;0.70;;;20.30;26.40;;;;;;5034546;28;20458;-81
2021/05/14 10:54:51;;;;;;;0.50;0.50;;;20.20;26.40;;;;;;5033858;28;20382;-82
2021/05/14 10:57:47;;;;;;;0.97;0.60;;;20.00;26.20;;;;;;5033323;28;20441;-82
2021/05/14 11:00:34;;;;;;;0.40;0.40;;;19.80;24.10;;;;;;5028532;28;20453;-81
2021/05/14 11:03:15;;;;;;;1.13;0.40;;;19.70;22.00;;;;;;5029045;28;20469;-81
2021/05/14 11:05:43;;;;;;;1.30;0.80;;;19.80;22.60;;;;;;5030827;28;20497;-81
2021/05/14 11:08:10;;;;;;;1.50;0.70;;;19.90;23.40;;;;;;5028649;28;20453;-80
2021/05/14 11:13:34;;;;;;;1.47;0.40;;;19.40;21.30;;;;;;5067429;22;20472;-81
2021/05/14 11:16:34;;;;;;;0.80;0.60;;;19.30;20.10;;;;;;5051652;28;20509;-82
2021/05/14 11:19:33;;;;;;;0.97;0.67;;;19.10;23.20;;;;;;5025068;28;20439;-83
2021/05/14 11:22:09;;;;;;;1.27;0.53;;;18.80;23.40;;;;;;5019848;28;20437;-80
2021/05/14 11:24:45;;;;;;;0.63;0.40;;;18.90;23.20;;;;;;5058604;23;20478;-78
2021/05/14 11:27:13;;;;;;;1.80;0.77;;;19.10;22.90;;;;;;5055115;28;20452;-81
2021/05/14 11:29:44;;;;;;;0.80;0.40;;;19.20;23.00;;;;;;5048214;28;20499;-80
2021/05/14 11:32:30;;;;;;;0.50;0.40;;;19.60;20.40;;;;;;5037480;28;20736;-80
2021/05/14 11:35:13;;;;;;;1.60;0.40;;;19.80;21.60;;;;;;5026501;28;20460;-79
2021/05/14 11:37:44;;;;;;;1.67;0.40;;;19.60;22.40;;;;;;5016652;28;20430;-79
2021/05/14 11:40:14;;;;;;;1.47;0.50;;;19.60;23.10;;;;;;5027753;28;20508;-79
2021/05/14 11:42:44;;;;;;;0.50;0.50;;;20.00;22.50;;;;;;5039153;28;20421;-80
2021/05/14 11:45:13;;;;;;;1.73;0.60;;;20.20;22.40;;;;;;5040191;28;20448;-80
2021/05/14 11:47:52;;;;;;;3.50;0.87;;;20.50;22.10;;;;;;5027612;28;20437;-79
2021/05/14 11:50:28;;;;;;;0.87;0.40;;;20.30;22.80;;;;;;5036052;28;20484;-80
2021/05/14 11:52:55;;;;;;;1.03;0.67;;;20.60;22.30;;;;;;5037547;28;20466;-80
2021/05/14 11:55:22;;;;;;;0.60;0.30;;;20.90;21.30;;;;;;5037805;28;20446;-80
2021/05/14 11:57:50;;;;;;;0.83;0.67;;;20.90;21.30;;;;;;5035212;28;20429;-80
2021/05/14 12:00:24;;;;;;;0.90;0.43;;;21.40;21.70;;;;;;5035279;28;20437;-79
2021/05/14 12:02:50;;;;;;;0.40;0.40;;;21.20;21.50;;;;;;5035681;28;20643;-79
2021/05/14 12:05:17;;;;;;;0.60;0.50;;;20.80;21.20;;;;;;5036977;28;20513;-81
2021/05/14 12:07:45;;;;;;;2.27;0.50;;;20.70;21.20;;;;;;5041632;28;20443;-80
2021/05/14 12:10:13;;;;;;;1.33;0.60;;;21.10;21.40;;;;;;5040998;28;20915;-79
2021/05/14 12:12:41;;;;;;;0.63;0.40;;;21.50;21.80;;;;;;5036484;28;20458;-80
2021/05/14 12:15:20;;;;;;;0.60;0.57;;;21.70;21.50;;;;;;5036826;28;20489;-80
2021/05/14 12:17:48;;;;;;;0.43;0.40;;;21.70;21.10;;;;;;5031640;28;20430;-80
2021/05/14 12:20:26;;;;;;;0.50;0.50;;;21.20;21.50;;;;;;5029245;28;20472;-79
2021/05/14 12:22:56;;;;;;;0.90;0.60;;;21.00;21.40;;;;;;5016951;28;20520;-80
2021/05/14 12:25:23;;;;;;;0.80;0.60;;;21.00;21.40;;;;;;5030971;28;20476;-80
2021/05/14 12:27:50;;;;;;;0.70;0.43;;;21.40;21.70;;;;;;5015078;28;20949;-78
2021/05/14 12:30:18;;;;;;;0.83;0.50;;;21.40;19.90;;;;;;5018223;28;20485;-78
2021/05/14 12:32:55;;;;;;;0.90;0.53;;;21.00;21.10;;;;;;5035717;28;20436;-81
2021/05/14 12:35:22;;;;;;;0.80;0.50;;;21.10;21.50;;;;;;5041949;28;20537;-80
2021/05/14 12:38:00;;;;;;;0.50;0.50;;;21.90;21.60;;;;;;5042853;28;20442;-81
2021/05/14 12:40:37;;;;;;;0.67;0.60;;;22.30;20.10;;;;;;5045939;28;20450;-80
2021/05/14 12:43:08;;;;;;;0.53;0.50;;;22.50;19.30;;;;;;5052074;28;20477;-82
2021/05/14 12:45:36;;;;;;;1.47;0.50;;;22.40;18.20;;;;;;5052630;28;20448;-79
2021/05/14 12:48:06;;;;;;;1.37;0.70;;;21.70;18.60;;;;;;5048254;28;20473;-79
2021/05/14 12:50:33;;;;;;;1.50;0.50;;;21.10;19.70;;;;;;5047394;28;20810;-80
2021/05/14 12:53:00;;;;;;;0.80;0.40;;;20.80;21.20;;;;;;5047157;28;20454;-79
2021/05/14 12:55:27;;;;;;;1.40;0.80;;;20.60;21.10;;;;;;5047116;28;20458;-78
2021/05/14 12:57:56;;;;;;;1.67;0.60;;;20.20;21.80;;;;;;5038754;28;20492;-78
2021/05/14 13:00:25;;;;;;;3.93;0.90;;;19.90;23.10;;;;;;5036898;28;20417;-77
2021/05/14 13:02:52;;;;;;;1.47;0.67;;;19.60;23.50;;;;;;5034588;28;20952;-76
2021/05/14 13:05:19;;;;;;;4.00;1.00;;;19.60;23.90;;;;;;5034548;28;20481;-76